sensor_id;sensor_type;location;lat;lon;timestamp;P1;durP1;ratioP1;P2;durP2;ratioP2
44143;SDS011;43510;51.920;4.492;2022-08-19T00:00:08;8.20;;;3.83;;
44143;SDS011;43510;51.920;4.492;2022-08-19T00:02:35;9.57;;;3.67;;
44143;SDS011;43510;51.920;4.492;2022-08-19T00:05:01;6.38;;;3.40;;
44143;SDS011;43510;51.920;4.492;2022-08-19T00:07:28;7.95;;;3.13;;
44143;SDS011;43510;51.920;4.492;2022-08-19T00:09:53;6.50;;;2.90;;
44143;SDS011;43510;51.920;4.492;2022-08-19T00:12:19;10.70;;;3.03;;
44143;SDS011;43510;51.920;4.492;2022-08-19T00:14:45;9.38;;;3.80;;
44143;SDS011;43510;51.920;4.492;2022-08-19T00:17:10;9.48;;;3.47;;
44143;SDS011;43510;51.920;4.492;2022-08-19T00:19:36;8.65;;;3.65;;
44143;SDS011;43510;51.920;4.492;2022-08-19T00:22:02;16.95;;;3.50;;
44143;SDS011;43510;51.920;4.492;2022-08-19T00:24:28;7.70;;;2.90;;
44143;SDS011;43510;51.920;4.492;2022-08-19T00:26:54;12.93;;;3.60;;
44143;SDS011;43510;51.920;4.492;2022-08-19T00:29:21;11.25;;;3.63;;
44143;SDS011;43510;51.920;4.492;2022-08-19T00:31:47;10.10;;;2.95;;
44143;SDS011;43510;51.920;4.492;2022-08-19T00:34:14;8.40;;;3.28;;
44143;SDS011;43510;51.920;4.492;2022-08-19T00:36:40;5.35;;;2.72;;
44143;SDS011;43510;51.920;4.492;2022-08-19T00:39:06;6.93;;;3.00;;
44143;SDS011;43510;51.920;4.492;2022-08-19T00:41:31;11.88;;;3.60;;
44143;SDS011;43510;51.920;4.492;2022-08-19T00:43:58;12.05;;;4.07;;
44143;SDS011;43510;51.920;4.492;2022-08-19T00:46:24;8.05;;;4.18;;
44143;SDS011;43510;51.920;4.492;2022-08-19T00:48:49;8.73;;;3.88;;
44143;SDS011;43510;51.920;4.492;2022-08-19T00:51:20;8.40;;;4.15;;
44143;SDS011;43510;51.920;4.492;2022-08-19T00:53:45;7.70;;;3.35;;
44143;SDS011;43510;51.920;4.492;2022-08-19T00:56:11;6.97;;;3.55;;
44143;SDS011;43510;51.920;4.492;2022-08-19T00:58:36;8.10;;;3.75;;
44143;SDS011;43510;51.920;4.492;2022-08-19T01:01:02;8.73;;;4.00;;
44143;SDS011;43510;51.920;4.492;2022-08-19T01:03:29;10.18;;;4.35;;
44143;SDS011;43510;51.920;4.492;2022-08-19T01:06:03;10.45;;;4.20;;
44143;SDS011;43510;51.920;4.492;2022-08-19T01:08:39;9.35;;;4.00;;
44143;SDS011;43510;51.920;4.492;2022-08-19T01:11:04;10.15;;;4.88;;
44143;SDS011;43510;51.920;4.492;2022-08-19T01:13:30;8.40;;;4.82;;
44143;SDS011;43510;51.920;4.492;2022-08-19T01:16:03;10.88;;;5.18;;
44143;SDS011;43510;51.920;4.492;2022-08-19T01:18:31;9.27;;;4.90;;
44143;SDS011;43510;51.920;4.492;2022-08-19T01:21:01;11.95;;;6.00;;
44143;SDS011;43510;51.920;4.492;2022-08-19T01:23:32;10.80;;;6.60;;
44143;SDS011;43510;51.920;4.492;2022-08-19T01:26:15;15.35;;;7.70;;
44143;SDS011;43510;51.920;4.492;2022-08-19T01:28:42;19.95;;;10.52;;
44143;SDS011;43510;51.920;4.492;2022-08-19T01:31:16;20.55;;;10.05;;
44143;SDS011;43510;51.920;4.492;2022-08-19T01:33:44;21.15;;;11.35;;
44143;SDS011;43510;51.920;4.492;2022-08-19T01:36:11;19.02;;;11.90;;
44143;SDS011;43510;51.920;4.492;2022-08-19T01:38:40;18.33;;;11.15;;
44143;SDS011;43510;51.920;4.492;2022-08-19T01:41:08;21.83;;;11.90;;
44143;SDS011;43510;51.920;4.492;2022-08-19T01:43:34;19.05;;;11.35;;
44143;SDS011;43510;51.920;4.492;2022-08-19T01:45:59;21.42;;;12.48;;
44143;SDS011;43510;51.920;4.492;2022-08-19T01:48:25;24.55;;;13.43;;
44143;SDS011;43510;51.920;4.492;2022-08-19T01:50:54;25.83;;;14.60;;
44143;SDS011;43510;51.920;4.492;2022-08-19T01:53:19;25.17;;;15.18;;
44143;SDS011;43510;51.920;4.492;2022-08-19T01:55:45;26.70;;;13.90;;
44143;SDS011;43510;51.920;4.492;2022-08-19T01:58:12;24.35;;;14.13;;
44143;SDS011;43510;51.920;4.492;2022-08-19T02:00:43;27.65;;;16.02;;
44143;SDS011;43510;51.920;4.492;2022-08-19T02:03:10;25.90;;;13.52;;
44143;SDS011;43510;51.920;4.492;2022-08-19T02:05:36;27.33;;;16.00;;
44143;SDS011;43510;51.920;4.492;2022-08-19T02:08:02;26.98;;;15.48;;
44143;SDS011;43510;51.920;4.492;2022-08-19T02:10:27;27.33;;;15.35;;
44143;SDS011;43510;51.920;4.492;2022-08-19T02:12:53;26.50;;;14.90;;
44143;SDS011;43510;51.920;4.492;2022-08-19T02:15:18;27.60;;;14.40;;
44143;SDS011;43510;51.920;4.492;2022-08-19T02:20:16;34.10;;;17.08;;
44143;SDS011;43510;51.920;4.492;2022-08-19T02:22:42;29.33;;;15.60;;
44143;SDS011;43510;51.920;4.492;2022-08-19T02:25:09;32.17;;;17.23;;
44143;SDS011;43510;51.920;4.492;2022-08-19T02:27:35;33.35;;;16.52;;
44143;SDS011;43510;51.920;4.492;2022-08-19T02:30:02;31.67;;;16.27;;
44143;SDS011;43510;51.920;4.492;2022-08-19T02:32:30;30.50;;;16.60;;
44143;SDS011;43510;51.920;4.492;2022-08-19T02:34:55;32.30;;;14.50;;
44143;SDS011;43510;51.920;4.492;2022-08-19T02:37:21;33.38;;;16.90;;
44143;SDS011;43510;51.920;4.492;2022-08-19T02:40:04;32.63;;;15.73;;
44143;SDS011;43510;51.920;4.492;2022-08-19T02:42:30;28.92;;;15.32;;
44143;SDS011;43510;51.920;4.492;2022-08-19T02:44:57;31.95;;;15.20;;
44143;SDS011;43510;51.920;4.492;2022-08-19T02:47:22;28.20;;;12.68;;
44143;SDS011;43510;51.920;4.492;2022-08-19T02:49:47;25.48;;;13.18;;
44143;SDS011;43510;51.920;4.492;2022-08-19T02:52:15;28.92;;;12.98;;
44143;SDS011;43510;51.920;4.492;2022-08-19T02:54:41;29.00;;;14.30;;
44143;SDS011;43510;51.920;4.492;2022-08-19T02:57:06;23.08;;;12.30;;
44143;SDS011;43510;51.920;4.492;2022-08-19T02:59:32;30.42;;;14.25;;
44143;SDS011;43510;51.920;4.492;2022-08-19T03:01:58;31.23;;;13.55;;
44143;SDS011;43510;51.920;4.492;2022-08-19T03:04:24;33.05;;;14.80;;
44143;SDS011;43510;51.920;4.492;2022-08-19T03:06:51;30.58;;;14.73;;
44143;SDS011;43510;51.920;4.492;2022-08-19T03:09:17;29.23;;;14.32;;
44143;SDS011;43510;51.920;4.492;2022-08-19T03:11:44;36.08;;;15.23;;
44143;SDS011;43510;51.920;4.492;2022-08-19T03:14:10;27.63;;;14.77;;
44143;SDS011;43510;51.920;4.492;2022-08-19T03:16:46;26.63;;;14.82;;
44143;SDS011;43510;51.920;4.492;2022-08-19T03:19:13;35.28;;;16.08;;
44143;SDS011;43510;51.920;4.492;2022-08-19T03:21:41;26.65;;;15.00;;
44143;SDS011;43510;51.920;4.492;2022-08-19T03:24:09;29.10;;;14.18;;
44143;SDS011;43510;51.920;4.492;2022-08-19T03:26:38;85.70;;;38.22;;
44143;SDS011;43510;51.920;4.492;2022-08-19T03:29:05;42.05;;;20.85;;
44143;SDS011;43510;51.920;4.492;2022-08-19T03:31:30;42.75;;;19.00;;
44143;SDS011;43510;51.920;4.492;2022-08-19T03:33:56;49.92;;;20.58;;
44143;SDS011;43510;51.920;4.492;2022-08-19T03:36:23;38.25;;;19.13;;
44143;SDS011;43510;51.920;4.492;2022-08-19T03:38:51;45.72;;;21.60;;
44143;SDS011;43510;51.920;4.492;2022-08-19T03:41:27;50.08;;;22.20;;
44143;SDS011;43510;51.920;4.492;2022-08-19T03:43:55;49.42;;;24.40;;
44143;SDS011;43510;51.920;4.492;2022-08-19T03:46:28;51.75;;;23.52;;
44143;SDS011;43510;51.920;4.492;2022-08-19T03:48:56;58.22;;;24.25;;
44143;SDS011;43510;51.920;4.492;2022-08-19T03:51:25;52.15;;;24.20;;
44143;SDS011;43510;51.920;4.492;2022-08-19T03:53:56;49.40;;;24.33;;
44143;SDS011;43510;51.920;4.492;2022-08-19T03:56:23;56.58;;;25.30;;
44143;SDS011;43510;51.920;4.492;2022-08-19T03:58:50;53.30;;;24.25;;
44143;SDS011;43510;51.920;4.492;2022-08-19T04:01:18;51.13;;;24.65;;
44143;SDS011;43510;51.920;4.492;2022-08-19T04:03:46;55.10;;;23.45;;
44143;SDS011;43510;51.920;4.492;2022-08-19T04:06:13;55.35;;;25.00;;
44143;SDS011;43510;51.920;4.492;2022-08-19T04:08:39;56.28;;;25.58;;
44143;SDS011;43510;51.920;4.492;2022-08-19T04:11:06;58.13;;;24.83;;
44143;SDS011;43510;51.920;4.492;2022-08-19T04:13:35;61.58;;;27.33;;
44143;SDS011;43510;51.920;4.492;2022-08-19T04:16:01;59.33;;;25.45;;
44143;SDS011;43510;51.920;4.492;2022-08-19T04:18:27;54.90;;;25.88;;
44143;SDS011;43510;51.920;4.492;2022-08-19T04:20:54;50.15;;;23.52;;
44143;SDS011;43510;51.920;4.492;2022-08-19T04:23:20;52.75;;;24.90;;
44143;SDS011;43510;51.920;4.492;2022-08-19T04:25:45;53.45;;;24.88;;
44143;SDS011;43510;51.920;4.492;2022-08-19T04:28:11;48.03;;;23.00;;
44143;SDS011;43510;51.920;4.492;2022-08-19T04:30:44;55.45;;;22.40;;
44143;SDS011;43510;51.920;4.492;2022-08-19T04:33:13;54.55;;;22.63;;
44143;SDS011;43510;51.920;4.492;2022-08-19T04:35:41;55.45;;;22.35;;
44143;SDS011;43510;51.920;4.492;2022-08-19T04:38:08;46.60;;;22.90;;
44143;SDS011;43510;51.920;4.492;2022-08-19T04:40:39;56.58;;;23.48;;
44143;SDS011;43510;51.920;4.492;2022-08-19T04:43:25;50.45;;;23.40;;
44143;SDS011;43510;51.920;4.492;2022-08-19T04:45:51;45.50;;;22.70;;
44143;SDS011;43510;51.920;4.492;2022-08-19T04:48:16;48.42;;;21.25;;
44143;SDS011;43510;51.920;4.492;2022-08-19T04:50:54;44.58;;;20.45;;
44143;SDS011;43510;51.920;4.492;2022-08-19T04:53:26;46.95;;;19.83;;
44143;SDS011;43510;51.920;4.492;2022-08-19T04:55:57;49.50;;;19.20;;
44143;SDS011;43510;51.920;4.492;2022-08-19T04:58:24;48.55;;;21.58;;
44143;SDS011;43510;51.920;4.492;2022-08-19T05:00:51;44.42;;;20.02;;
44143;SDS011;43510;51.920;4.492;2022-08-19T05:03:18;44.60;;;20.38;;
44143;SDS011;43510;51.920;4.492;2022-08-19T05:05:44;52.13;;;21.08;;
44143;SDS011;43510;51.920;4.492;2022-08-19T05:08:20;44.75;;;19.33;;
44143;SDS011;43510;51.920;4.492;2022-08-19T05:10:48;42.80;;;20.17;;
44143;SDS011;43510;51.920;4.492;2022-08-19T05:13:16;46.83;;;19.88;;
44143;SDS011;43510;51.920;4.492;2022-08-19T05:15:43;53.63;;;21.13;;
44143;SDS011;43510;51.920;4.492;2022-08-19T05:18:10;45.85;;;21.08;;
44143;SDS011;43510;51.920;4.492;2022-08-19T05:20:54;41.80;;;19.52;;
44143;SDS011;43510;51.920;4.492;2022-08-19T05:23:38;44.67;;;20.42;;
44143;SDS011;43510;51.920;4.492;2022-08-19T05:26:04;44.15;;;18.20;;
44143;SDS011;43510;51.920;4.492;2022-08-19T05:28:29;51.05;;;19.52;;
44143;SDS011;43510;51.920;4.492;2022-08-19T05:30:55;37.28;;;18.25;;
44143;SDS011;43510;51.920;4.492;2022-08-19T05:33:21;39.65;;;18.58;;
44143;SDS011;43510;51.920;4.492;2022-08-19T05:35:48;43.00;;;18.35;;
44143;SDS011;43510;51.920;4.492;2022-08-19T05:38:15;43.03;;;18.67;;
44143;SDS011;43510;51.920;4.492;2022-08-19T05:40:43;36.35;;;17.55;;
44143;SDS011;43510;51.920;4.492;2022-08-19T05:43:13;40.45;;;16.00;;
44143;SDS011;43510;51.920;4.492;2022-08-19T05:45:42;42.58;;;18.77;;
44143;SDS011;43510;51.920;4.492;2022-08-19T05:48:12;44.88;;;19.20;;
44143;SDS011;43510;51.920;4.492;2022-08-19T05:50:38;40.03;;;15.63;;
44143;SDS011;43510;51.920;4.492;2022-08-19T05:53:06;37.90;;;17.77;;
44143;SDS011;43510;51.920;4.492;2022-08-19T05:55:33;33.45;;;17.25;;
44143;SDS011;43510;51.920;4.492;2022-08-19T05:58:00;35.05;;;15.52;;
44143;SDS011;43510;51.920;4.492;2022-08-19T06:00:26;29.65;;;14.98;;
44143;SDS011;43510;51.920;4.492;2022-08-19T06:02:52;36.78;;;15.50;;
44143;SDS011;43510;51.920;4.492;2022-08-19T06:05:21;35.85;;;15.07;;
44143;SDS011;43510;51.920;4.492;2022-08-19T06:07:47;32.13;;;15.52;;
44143;SDS011;43510;51.920;4.492;2022-08-19T06:10:13;28.30;;;14.77;;
44143;SDS011;43510;51.920;4.492;2022-08-19T06:12:39;34.17;;;14.43;;
44143;SDS011;43510;51.920;4.492;2022-08-19T06:15:07;30.77;;;14.50;;
44143;SDS011;43510;51.920;4.492;2022-08-19T06:17:34;39.92;;;14.70;;
44143;SDS011;43510;51.920;4.492;2022-08-19T06:20:03;34.17;;;14.93;;
44143;SDS011;43510;51.920;4.492;2022-08-19T06:22:30;31.63;;;14.13;;
44143;SDS011;43510;51.920;4.492;2022-08-19T06:24:55;30.73;;;14.73;;
44143;SDS011;43510;51.920;4.492;2022-08-19T06:27:21;26.60;;;12.77;;
44143;SDS011;43510;51.920;4.492;2022-08-19T06:29:47;32.10;;;13.32;;
44143;SDS011;43510;51.920;4.492;2022-08-19T06:32:14;29.15;;;14.00;;
44143;SDS011;43510;51.920;4.492;2022-08-19T06:34:41;26.08;;;13.10;;
44143;SDS011;43510;51.920;4.492;2022-08-19T06:37:07;26.23;;;13.30;;
44143;SDS011;43510;51.920;4.492;2022-08-19T06:39:34;29.35;;;14.57;;
44143;SDS011;43510;51.920;4.492;2022-08-19T06:42:03;30.23;;;13.35;;
44143;SDS011;43510;51.920;4.492;2022-08-19T06:44:33;26.10;;;13.02;;
44143;SDS011;43510;51.920;4.492;2022-08-19T06:47:04;32.88;;;14.43;;
44143;SDS011;43510;51.920;4.492;2022-08-19T06:49:33;22.50;;;11.57;;
44143;SDS011;43510;51.920;4.492;2022-08-19T06:52:00;29.23;;;15.25;;
44143;SDS011;43510;51.920;4.492;2022-08-19T06:54:26;25.25;;;13.00;;
44143;SDS011;43510;51.920;4.492;2022-08-19T06:56:53;25.08;;;13.02;;
44143;SDS011;43510;51.920;4.492;2022-08-19T06:59:19;24.13;;;12.20;;
44143;SDS011;43510;51.920;4.492;2022-08-19T07:01:48;27.63;;;12.80;;
44143;SDS011;43510;51.920;4.492;2022-08-19T07:04:17;27.77;;;13.27;;
44143;SDS011;43510;51.920;4.492;2022-08-19T07:06:44;34.65;;;15.40;;
44143;SDS011;43510;51.920;4.492;2022-08-19T07:09:11;29.45;;;15.25;;
44143;SDS011;43510;51.920;4.492;2022-08-19T07:11:41;31.88;;;14.10;;
44143;SDS011;43510;51.920;4.492;2022-08-19T07:14:16;25.38;;;13.27;;
44143;SDS011;43510;51.920;4.492;2022-08-19T07:16:43;29.00;;;12.65;;
44143;SDS011;43510;51.920;4.492;2022-08-19T07:19:10;27.85;;;13.77;;
44143;SDS011;43510;51.920;4.492;2022-08-19T07:21:36;26.60;;;13.85;;
44143;SDS011;43510;51.920;4.492;2022-08-19T07:24:02;32.20;;;13.75;;
44143;SDS011;43510;51.920;4.492;2022-08-19T07:26:29;30.83;;;12.88;;
44143;SDS011;43510;51.920;4.492;2022-08-19T07:28:57;22.98;;;12.85;;
44143;SDS011;43510;51.920;4.492;2022-08-19T07:31:24;28.15;;;12.80;;
44143;SDS011;43510;51.920;4.492;2022-08-19T07:33:51;25.10;;;12.65;;
44143;SDS011;43510;51.920;4.492;2022-08-19T07:36:26;27.73;;;12.65;;
44143;SDS011;43510;51.920;4.492;2022-08-19T07:38:57;22.77;;;11.90;;
44143;SDS011;43510;51.920;4.492;2022-08-19T07:41:25;27.20;;;12.55;;
44143;SDS011;43510;51.920;4.492;2022-08-19T07:43:53;27.10;;;12.15;;
44143;SDS011;43510;51.920;4.492;2022-08-19T07:46:19;25.70;;;12.77;;
44143;SDS011;43510;51.920;4.492;2022-08-19T07:48:45;27.92;;;12.25;;
44143;SDS011;43510;51.920;4.492;2022-08-19T07:51:11;24.98;;;11.90;;
44143;SDS011;43510;51.920;4.492;2022-08-19T07:53:37;29.35;;;12.02;;
44143;SDS011;43510;51.920;4.492;2022-08-19T07:56:03;27.98;;;12.52;;
44143;SDS011;43510;51.920;4.492;2022-08-19T07:58:30;27.95;;;12.98;;
44143;SDS011;43510;51.920;4.492;2022-08-19T08:01:03;29.05;;;11.73;;
44143;SDS011;43510;51.920;4.492;2022-08-19T08:03:30;20.65;;;11.75;;
44143;SDS011;43510;51.920;4.492;2022-08-19T08:06:15;22.38;;;11.10;;
44143;SDS011;43510;51.920;4.492;2022-08-19T08:08:59;22.17;;;11.00;;
44143;SDS011;43510;51.920;4.492;2022-08-19T08:11:41;29.60;;;11.90;;
44143;SDS011;43510;51.920;4.492;2022-08-19T08:14:49;26.17;;;11.35;;
44143;SDS011;43510;51.920;4.492;2022-08-19T08:17:07;23.67;;;10.40;;
44143;SDS011;43510;51.920;4.492;2022-08-19T08:19:33;21.02;;;9.70;;
44143;SDS011;43510;51.920;4.492;2022-08-19T08:21:59;24.10;;;10.25;;
44143;SDS011;43510;51.920;4.492;2022-08-19T08:24:26;20.00;;;9.50;;
44143;SDS011;43510;51.920;4.492;2022-08-19T08:26:53;19.02;;;9.90;;
44143;SDS011;43510;51.920;4.492;2022-08-19T08:29:19;22.05;;;9.57;;
44143;SDS011;43510;51.920;4.492;2022-08-19T08:31:45;19.52;;;9.73;;
44143;SDS011;43510;51.920;4.492;2022-08-19T08:34:11;24.63;;;9.25;;
44143;SDS011;43510;51.920;4.492;2022-08-19T08:36:38;23.00;;;10.25;;
44143;SDS011;43510;51.920;4.492;2022-08-19T08:39:10;19.83;;;8.40;;
44143;SDS011;43510;51.920;4.492;2022-08-19T08:45:10;17.52;;;8.27;;
44143;SDS011;43510;51.920;4.492;2022-08-19T08:47:14;16.98;;;8.38;;
44143;SDS011;43510;51.920;4.492;2022-08-19T08:49:45;23.00;;;8.73;;
44143;SDS011;43510;51.920;4.492;2022-08-19T08:52:26;16.90;;;8.02;;
44143;SDS011;43510;51.920;4.492;2022-08-19T08:54:54;15.88;;;8.40;;
44143;SDS011;43510;51.920;4.492;2022-08-19T08:57:32;20.95;;;7.90;;
44143;SDS011;43510;51.920;4.492;2022-08-19T09:00:04;19.23;;;8.02;;
44143;SDS011;43510;51.920;4.492;2022-08-19T09:02:32;15.63;;;6.97;;
44143;SDS011;43510;51.920;4.492;2022-08-19T09:04:58;15.63;;;7.45;;
44143;SDS011;43510;51.920;4.492;2022-08-19T09:07:34;19.98;;;8.05;;
44143;SDS011;43510;51.920;4.492;2022-08-19T09:10:24;14.07;;;7.10;;
44143;SDS011;43510;51.920;4.492;2022-08-19T09:15:36;13.20;;;5.57;;
44143;SDS011;43510;51.920;4.492;2022-08-19T09:18:09;12.85;;;5.88;;
44143;SDS011;43510;51.920;4.492;2022-08-19T09:20:34;13.13;;;5.80;;
44143;SDS011;43510;51.920;4.492;2022-08-19T09:23:00;12.73;;;5.95;;
44143;SDS011;43510;51.920;4.492;2022-08-19T09:25:25;17.80;;;5.85;;
44143;SDS011;43510;51.920;4.492;2022-08-19T09:27:51;14.32;;;6.05;;
44143;SDS011;43510;51.920;4.492;2022-08-19T09:30:25;15.80;;;5.85;;
44143;SDS011;43510;51.920;4.492;2022-08-19T09:32:53;12.60;;;5.20;;
44143;SDS011;43510;51.920;4.492;2022-08-19T09:35:23;13.75;;;4.70;;
44143;SDS011;43510;51.920;4.492;2022-08-19T09:37:50;16.05;;;6.07;;
44143;SDS011;43510;51.920;4.492;2022-08-19T09:40:16;11.98;;;4.78;;
44143;SDS011;43510;51.920;4.492;2022-08-19T09:42:43;12.18;;;5.07;;
44143;SDS011;43510;51.920;4.492;2022-08-19T09:45:11;10.57;;;4.32;;
44143;SDS011;43510;51.920;4.492;2022-08-19T09:47:36;11.27;;;4.03;;
44143;SDS011;43510;51.920;4.492;2022-08-19T09:50:04;11.55;;;4.93;;
44143;SDS011;43510;51.920;4.492;2022-08-19T09:52:31;11.02;;;4.57;;
44143;SDS011;43510;51.920;4.492;2022-08-19T09:54:57;10.27;;;4.10;;
44143;SDS011;43510;51.920;4.492;2022-08-19T09:57:22;8.30;;;3.50;;
44143;SDS011;43510;51.920;4.492;2022-08-19T09:59:48;9.90;;;3.45;;
44143;SDS011;43510;51.920;4.492;2022-08-19T10:02:13;9.40;;;3.72;;
44143;SDS011;43510;51.920;4.492;2022-08-19T10:04:39;8.55;;;3.03;;
44143;SDS011;43510;51.920;4.492;2022-08-19T10:07:23;11.55;;;4.68;;
44143;SDS011;43510;51.920;4.492;2022-08-19T10:09:49;8.02;;;3.35;;
44143;SDS011;43510;51.920;4.492;2022-08-19T10:12:14;6.10;;;2.92;;
44143;SDS011;43510;51.920;4.492;2022-08-19T10:14:40;11.55;;;2.97;;
44143;SDS011;43510;51.920;4.492;2022-08-19T10:17:05;8.43;;;2.53;;
44143;SDS011;43510;51.920;4.492;2022-08-19T10:19:31;7.97;;;2.40;;
44143;SDS011;43510;51.920;4.492;2022-08-19T10:22:02;6.55;;;2.47;;
44143;SDS011;43510;51.920;4.492;2022-08-19T10:24:29;8.68;;;2.80;;
44143;SDS011;43510;51.920;4.492;2022-08-19T10:26:55;8.73;;;2.58;;
44143;SDS011;43510;51.920;4.492;2022-08-19T10:29:21;7.45;;;2.55;;
44143;SDS011;43510;51.920;4.492;2022-08-19T10:31:46;10.77;;;2.70;;
44143;SDS011;43510;51.920;4.492;2022-08-19T10:34:13;7.13;;;2.53;;
44143;SDS011;43510;51.920;4.492;2022-08-19T10:36:39;6.70;;;2.30;;
44143;SDS011;43510;51.920;4.492;2022-08-19T10:39:06;6.22;;;2.13;;
44143;SDS011;43510;51.920;4.492;2022-08-19T10:41:34;5.05;;;2.17;;
44143;SDS011;43510;51.920;4.492;2022-08-19T10:44:03;6.70;;;1.92;;
44143;SDS011;43510;51.920;4.492;2022-08-19T10:46:32;9.02;;;2.50;;
44143;SDS011;43510;51.920;4.492;2022-08-19T10:49:00;9.20;;;2.67;;
44143;SDS011;43510;51.920;4.492;2022-08-19T10:51:27;11.40;;;3.05;;
44143;SDS011;43510;51.920;4.492;2022-08-19T10:54:11;5.75;;;2.00;;
44143;SDS011;43510;51.920;4.492;2022-08-19T10:56:37;10.45;;;2.45;;
44143;SDS011;43510;51.920;4.492;2022-08-19T10:59:21;3.72;;;1.70;;
44143;SDS011;43510;51.920;4.492;2022-08-19T11:01:51;5.07;;;1.88;;
44143;SDS011;43510;51.920;4.492;2022-08-19T11:04:17;5.30;;;1.77;;
44143;SDS011;43510;51.920;4.492;2022-08-19T11:06:44;5.28;;;1.50;;
44143;SDS011;43510;51.920;4.492;2022-08-19T11:09:12;3.47;;;1.52;;
44143;SDS011;43510;51.920;4.492;2022-08-19T11:11:38;5.82;;;2.42;;
44143;SDS011;43510;51.920;4.492;2022-08-19T11:14:07;4.65;;;1.50;;
44143;SDS011;43510;51.920;4.492;2022-08-19T11:16:34;5.63;;;2.05;;
44143;SDS011;43510;51.920;4.492;2022-08-19T11:18:59;2.85;;;1.27;;
44143;SDS011;43510;51.920;4.492;2022-08-19T11:21:27;9.23;;;1.70;;
44143;SDS011;43510;51.920;4.492;2022-08-19T11:23:57;4.10;;;1.45;;
44143;SDS011;43510;51.920;4.492;2022-08-19T11:26:26;3.13;;;1.05;;
44143;SDS011;43510;51.920;4.492;2022-08-19T11:28:52;8.43;;;1.70;;
44143;SDS011;43510;51.920;4.492;2022-08-19T11:31:21;6.63;;;1.35;;
44143;SDS011;43510;51.920;4.492;2022-08-19T11:33:49;4.93;;;1.70;;
44143;SDS011;43510;51.920;4.492;2022-08-19T11:36:19;4.57;;;1.40;;
44143;SDS011;43510;51.920;4.492;2022-08-19T11:38:48;5.07;;;1.77;;
44143;SDS011;43510;51.920;4.492;2022-08-19T11:41:15;5.15;;;2.15;;
44143;SDS011;43510;51.920;4.492;2022-08-19T11:43:43;5.88;;;1.73;;
44143;SDS011;43510;51.920;4.492;2022-08-19T11:46:09;5.35;;;2.05;;
44143;SDS011;43510;51.920;4.492;2022-08-19T11:48:37;3.45;;;1.52;;
44143;SDS011;43510;51.920;4.492;2022-08-19T11:51:10;4.60;;;1.80;;
44143;SDS011;43510;51.920;4.492;2022-08-19T11:53:37;6.72;;;2.17;;
44143;SDS011;43510;51.920;4.492;2022-08-19T11:56:03;5.82;;;2.13;;
44143;SDS011;43510;51.920;4.492;2022-08-19T11:58:30;5.10;;;1.90;;
44143;SDS011;43510;51.920;4.492;2022-08-19T12:00:56;5.00;;;1.70;;
44143;SDS011;43510;51.920;4.492;2022-08-19T12:03:21;4.82;;;1.88;;
44143;SDS011;43510;51.920;4.492;2022-08-19T12:05:47;5.00;;;1.63;;
44143;SDS011;43510;51.920;4.492;2022-08-19T12:08:14;4.90;;;2.10;;
44143;SDS011;43510;51.920;4.492;2022-08-19T12:10:40;8.13;;;2.10;;
44143;SDS011;43510;51.920;4.492;2022-08-19T12:13:07;7.60;;;1.90;;
44143;SDS011;43510;51.920;4.492;2022-08-19T12:15:38;4.70;;;1.92;;
44143;SDS011;43510;51.920;4.492;2022-08-19T12:18:07;6.05;;;1.90;;
44143;SDS011;43510;51.920;4.492;2022-08-19T12:20:35;5.45;;;1.50;;
44143;SDS011;43510;51.920;4.492;2022-08-19T12:23:02;3.30;;;1.45;;
44143;SDS011;43510;51.920;4.492;2022-08-19T12:25:29;8.35;;;2.05;;
44143;SDS011;43510;51.920;4.492;2022-08-19T12:27:54;6.70;;;1.88;;
44143;SDS011;43510;51.920;4.492;2022-08-19T12:30:19;4.78;;;1.80;;
44143;SDS011;43510;51.920;4.492;2022-08-19T12:32:45;4.13;;;1.42;;
44143;SDS011;43510;51.920;4.492;2022-08-19T12:35:10;7.57;;;1.70;;
44143;SDS011;43510;51.920;4.492;2022-08-19T12:37:36;3.70;;;1.15;;
44143;SDS011;43510;51.920;4.492;2022-08-19T12:40:02;3.33;;;1.38;;
44143;SDS011;43510;51.920;4.492;2022-08-19T12:42:28;3.78;;;1.40;;
44143;SDS011;43510;51.920;4.492;2022-08-19T12:44:55;5.95;;;2.10;;
44143;SDS011;43510;51.920;4.492;2022-08-19T12:47:21;5.13;;;1.50;;
44143;SDS011;43510;51.920;4.492;2022-08-19T12:49:46;4.25;;;1.45;;
44143;SDS011;43510;51.920;4.492;2022-08-19T12:52:13;6.93;;;1.42;;
44143;SDS011;43510;51.920;4.492;2022-08-19T12:54:42;5.38;;;1.65;;
44143;SDS011;43510;51.920;4.492;2022-08-19T12:57:08;3.05;;;1.42;;
44143;SDS011;43510;51.920;4.492;2022-08-19T12:59:36;3.85;;;1.50;;
44143;SDS011;43510;51.920;4.492;2022-08-19T13:02:03;3.75;;;1.42;;
44143;SDS011;43510;51.920;4.492;2022-08-19T13:04:31;3.45;;;1.30;;
44143;SDS011;43510;51.920;4.492;2022-08-19T13:06:56;3.15;;;1.20;;
44143;SDS011;43510;51.920;4.492;2022-08-19T13:09:24;7.00;;;3.03;;
44143;SDS011;43510;51.920;4.492;2022-08-19T13:11:49;10.10;;;3.83;;
44143;SDS011;43510;51.920;4.492;2022-08-19T13:14:14;10.65;;;3.65;;
44143;SDS011;43510;51.920;4.492;2022-08-19T13:16:41;7.57;;;3.53;;
44143;SDS011;43510;51.920;4.492;2022-08-19T13:19:06;6.53;;;2.95;;
44143;SDS011;43510;51.920;4.492;2022-08-19T13:21:32;6.32;;;2.33;;
44143;SDS011;43510;51.920;4.492;2022-08-19T13:23:58;6.13;;;2.17;;
44143;SDS011;43510;51.920;4.492;2022-08-19T13:26:23;6.80;;;3.17;;
44143;SDS011;43510;51.920;4.492;2022-08-19T13:28:49;8.20;;;4.13;;
44143;SDS011;43510;51.920;4.492;2022-08-19T13:31:35;11.38;;;4.43;;
44143;SDS011;43510;51.920;4.492;2022-08-19T13:34:28;17.20;;;4.90;;
44143;SDS011;43510;51.920;4.492;2022-08-19T13:36:59;8.90;;;4.53;;
44143;SDS011;43510;51.920;4.492;2022-08-19T13:39:27;8.68;;;4.25;;
44143;SDS011;43510;51.920;4.492;2022-08-19T13:41:53;9.85;;;4.32;;
44143;SDS011;43510;51.920;4.492;2022-08-19T13:44:19;9.20;;;3.72;;
44143;SDS011;43510;51.920;4.492;2022-08-19T13:46:45;6.78;;;3.15;;
44143;SDS011;43510;51.920;4.492;2022-08-19T13:49:13;11.23;;;3.88;;
44143;SDS011;43510;51.920;4.492;2022-08-19T13:51:40;6.05;;;2.20;;
44143;SDS011;43510;51.920;4.492;2022-08-19T13:54:06;6.35;;;2.88;;
44143;SDS011;43510;51.920;4.492;2022-08-19T13:56:33;8.57;;;2.92;;
44143;SDS011;43510;51.920;4.492;2022-08-19T13:58:59;6.00;;;2.30;;
44143;SDS011;43510;51.920;4.492;2022-08-19T14:01:24;6.70;;;2.60;;
44143;SDS011;43510;51.920;4.492;2022-08-19T14:03:51;7.55;;;2.55;;
44143;SDS011;43510;51.920;4.492;2022-08-19T14:06:17;7.32;;;2.33;;
44143;SDS011;43510;51.920;4.492;2022-08-19T14:08:43;5.15;;;2.35;;
44143;SDS011;43510;51.920;4.492;2022-08-19T14:11:09;6.05;;;2.08;;
44143;SDS011;43510;51.920;4.492;2022-08-19T14:13:35;4.00;;;1.48;;
44143;SDS011;43510;51.920;4.492;2022-08-19T14:16:00;4.60;;;1.63;;
44143;SDS011;43510;51.920;4.492;2022-08-19T14:18:25;3.72;;;1.50;;
44143;SDS011;43510;51.920;4.492;2022-08-19T14:20:51;6.57;;;1.88;;
44143;SDS011;43510;51.920;4.492;2022-08-19T14:23:17;5.78;;;2.25;;
44143;SDS011;43510;51.920;4.492;2022-08-19T14:25:43;6.50;;;2.15;;
44143;SDS011;43510;51.920;4.492;2022-08-19T14:28:10;6.10;;;2.10;;
44143;SDS011;43510;51.920;4.492;2022-08-19T14:30:37;4.57;;;1.60;;
44143;SDS011;43510;51.920;4.492;2022-08-19T14:33:03;3.33;;;1.10;;
44143;SDS011;43510;51.920;4.492;2022-08-19T14:35:30;4.80;;;1.50;;
44143;SDS011;43510;51.920;4.492;2022-08-19T14:38:01;3.00;;;1.10;;
44143;SDS011;43510;51.920;4.492;2022-08-19T14:40:28;5.78;;;1.00;;
44143;SDS011;43510;51.920;4.492;2022-08-19T14:42:55;4.60;;;1.30;;
44143;SDS011;43510;51.920;4.492;2022-08-19T14:45:24;4.47;;;1.30;;